Time;durP1;ratioP1;P1;durP2;ratioP2;P2;SDS_P1;SDS_P2;PMS_P1;PMS_P2;Temp;Humidity;BMP_temperature;BMP_pressure;BME280_temperature;BME280_humidity;BME280_pressure;Samples;Min_cycle;Max_cycle;Signal;HPM_P1;HPM_P2
2022/03/25 00:00:21;;;;;;;26.13;20.13;;;4.80;47.50;;;3.48;57.33;98923.97;5013598;28;20446;-68
2022/03/25 00:02:48;;;;;;;28.30;19.60;;;4.70;47.40;;;3.50;57.35;98921.16;5013735;28;20449;-67
2022/03/25 00:05:16;;;;;;;24.33;19.27;;;4.70;47.30;;;3.31;58.48;98928.25;5013529;28;20472;-66
2022/03/25 00:07:43;;;;;;;27.23;19.77;;;4.60;47.60;;;3.26;58.74;98934.03;5014727;28;20455;-67
2022/03/25 00:10:10;;;;;;;22.60;18.53;;;4.50;48.00;;;3.15;59.62;98938.72;5013585;28;20534;-67
2022/03/25 00:12:38;;;;;;;23.33;18.67;;;4.40;48.40;;;3.07;60.29;98942.94;5014161;28;20497;-66
2022/03/25 00:15:06;;;;;;;26.70;19.40;;;4.40;48.90;;;3.06;60.72;98941.25;5012554;28;20439;-66
2022/03/25 00:17:34;;;;;;;25.60;19.40;;;4.40;49.50;;;3.03;60.89;98946.91;5013480;28;20494;-65
2022/03/25 00:20:02;;;;;;;26.73;19.97;;;4.40;49.50;;;2.98;60.98;98936.66;5013066;28;20839;-65
2022/03/25 00:22:30;;;;;;;27.70;21.03;;;4.40;49.60;;;3.04;61.14;98948.59;5028228;28;20443;-67
2022/03/25 00:24:57;;;;;;;26.37;19.20;;;4.40;49.60;;;3.02;60.65;98939.88;5012082;28;20498;-66
2022/03/25 00:27:24;;;;;;;25.67;18.33;;;4.40;49.70;;;3.08;60.82;98944.63;5013623;28;20542;-68
2022/03/25 00:29:51;;;;;;;24.87;19.43;;;4.30;49.80;;;3.20;60.61;98939.13;5013040;28;20470;-66
2022/03/25 00:32:20;;;;;;;23.50;18.30;;;4.40;49.80;;;3.09;60.67;98934.81;5013319;28;20925;-66
2022/03/25 00:34:47;;;;;;;27.83;19.33;;;4.40;50.00;;;2.94;61.08;98932.59;5013409;28;20550;-66
2022/03/25 00:37:13;;;;;;;21.70;17.67;;;4.30;50.00;;;2.84;61.49;98934.41;5013258;28;20513;-67
2022/03/25 00:39:42;;;;;;;25.17;17.73;;;4.20;50.20;;;2.68;62.50;98933.19;5013579;28;20471;-66
2022/03/25 00:42:12;;;;;;;25.70;18.23;;;4.00;50.90;;;2.66;62.71;98929.00;5028441;28;20455;-66
2022/03/25 00:44:39;;;;;;;26.30;19.60;;;4.00;51.00;;;2.67;62.51;98933.34;5013600;28;20454;-66
2022/03/25 00:47:06;;;;;;;24.70;18.77;;;4.00;51.00;;;2.73;62.11;98932.75;5012246;28;20825;-66
2022/03/25 00:49:33;;;;;;;22.33;18.13;;;3.90;51.20;;;2.64;62.60;98928.25;5013705;28;20475;-66
2022/03/25 00:52:00;;;;;;;22.77;18.23;;;3.90;51.30;;;2.57;62.85;98929.84;5028647;28;20446;-66
2022/03/25 00:54:28;;;;;;;23.67;18.43;;;3.80;51.40;;;2.39;62.79;98895.88;5015327;28;20460;-66
2022/03/25 00:56:56;;;;;;;27.07;18.93;;;3.80;51.60;;;2.78;61.82;98922.50;5016709;28;20470;-66
2022/03/25 00:59:23;;;;;;;25.63;17.67;;;4.00;51.70;;;2.74;61.95;98923.78;5031929;28;20482;-66
2022/03/25 01:01:50;;;;;;;26.30;19.83;;;4.00;51.50;;;2.61;62.15;98918.75;5015268;28;20442;-67
2022/03/25 01:04:17;;;;;;;30.97;20.10;;;3.90;51.50;;;2.68;62.17;98924.34;5016521;28;20439;-66
2022/03/25 01:06:45;;;;;;;27.03;19.70;;;3.90;51.50;;;2.72;61.89;98923.06;5016601;28;20450;-67
2022/03/25 01:09:12;;;;;;;29.13;22.10;;;4.00;51.40;;;2.68;62.39;98916.34;5016649;28;20594;-66
2022/03/25 01:11:39;;;;;;;28.63;20.30;;;4.00;51.50;;;2.62;62.44;98927.56;5017001;28;20501;-66
2022/03/25 01:14:08;;;;;;;29.53;21.10;;;3.90;51.80;;;2.58;62.86;98926.19;5016416;28;20899;-66
2022/03/25 01:16:35;;;;;;;24.57;19.70;;;3.80;51.80;;;2.53;62.85;98922.13;5016176;28;20548;-66
2022/03/25 01:19:03;;;;;;;28.17;20.20;;;3.80;51.90;;;2.59;62.61;98922.53;5015248;28;20444;-67
2022/03/25 01:21:30;;;;;;;30.47;20.80;;;3.80;51.90;;;2.36;63.51;98925.50;5015039;28;20457;-67
2022/03/25 01:23:57;;;;;;;29.00;21.57;;;3.70;52.10;;;2.23;64.05;98923.94;5014937;28;20875;-65
2022/03/25 01:26:24;;;;;;;27.23;22.80;;;3.60;52.50;;;2.16;65.06;98912.13;5015904;28;20447;-66
2022/03/25 01:28:52;;;;;;;26.87;21.10;;;3.50;53.00;;;2.20;64.68;98912.72;5016189;28;20476;-66
2022/03/25 01:31:21;;;;;;;29.87;21.57;;;3.50;53.40;;;2.16;64.87;98914.81;5014828;28;20530;-67
2022/03/25 01:33:48;;;;;;;27.40;19.57;;;3.40;53.60;;;2.10;64.78;98907.38;5016019;28;20523;-67
2022/03/25 01:36:15;;;;;;;25.33;19.23;;;3.40;53.90;;;2.04;65.79;98915.91;5015938;28;20509;-65
2022/03/25 01:38:44;;;;;;;25.57;19.47;;;3.40;54.30;;;1.99;65.77;98921.69;5016332;28;20447;-66
2022/03/25 01:41:11;;;;;;;26.03;19.00;;;3.30;54.50;;;2.01;66.02;98919.72;5016036;28;20436;-66
2022/03/25 01:43:38;;;;;;;26.93;20.43;;;3.40;54.90;;;2.04;65.99;98913.25;5016136;28;20436;-67
2022/03/25 01:46:05;;;;;;;28.47;22.57;;;3.40;55.10;;;2.07;65.54;98907.66;5015849;28;20479;-66
2022/03/25 01:48:33;;;;;;;33.03;22.07;;;3.40;55.20;;;2.12;65.52;98910.75;5015737;28;20496;-68
2022/03/25 01:51:03;;;;;;;26.20;20.33;;;3.40;55.10;;;2.20;65.16;98916.22;5016222;28;20434;-67
2022/03/25 01:53:30;;;;;;;27.67;19.67;;;3.40;55.20;;;2.11;65.23;98909.06;5016444;28;20434;-66
2022/03/25 01:56:00;;;;;;;29.60;19.00;;;3.40;55.10;;;2.32;64.76;98910.72;5015880;28;20451;-66
2022/03/25 01:58:29;;;;;;;27.37;18.40;;;3.50;55.00;;;2.10;65.46;98910.88;5015781;28;20479;-67
2022/03/25 02:00:57;;;;;;;25.73;19.00;;;3.50;55.10;;;2.29;64.73;98903.03;5015595;28;20439;-66
2022/03/25 02:03:24;;;;;;;24.20;18.57;;;3.50;55.00;;;2.22;64.96;98908.94;5014753;28;20442;-66
2022/03/25 02:05:52;;;;;;;26.10;19.17;;;3.60;54.90;;;1.97;66.32;98907.63;5015599;28;20450;-67
2022/03/25 02:08:20;;;;;;;27.40;19.00;;;3.40;55.20;;;1.84;66.68;98907.88;5015871;28;20501;-66
2022/03/25 02:10:47;;;;;;;25.00;18.10;;;3.20;55.50;;;1.81;66.84;98897.50;5030539;28;20453;-66
2022/03/25 02:13:14;;;;;;;25.47;18.60;;;3.20;56.10;;;1.87;66.23;98896.94;5015242;28;20454;-66
2022/03/25 02:15:43;;;;;;;27.37;19.70;;;3.20;56.10;;;2.01;65.81;98908.19;5014453;28;20487;-67
2022/03/25 02:18:14;;;;;;;26.73;18.47;;;3.30;55.80;;;1.85;65.72;98890.91;5015067;28;20550;-67
2022/03/25 02:20:42;;;;;;;27.43;19.80;;;3.30;55.80;;;1.72;66.55;98903.66;5016283;28;20441;-67
2022/03/25 02:23:11;;;;;;;26.37;18.13;;;3.10;56.00;;;1.54;66.88;98897.19;5014874;28;20530;-66
2022/03/25 02:25:39;;;;;;;24.83;19.00;;;3.00;56.60;;;1.56;67.86;98899.69;5015391;28;20472;-66
2022/03/25 02:28:07;;;;;;;29.40;19.97;;;2.90;57.20;;;1.79;67.59;98905.63;5013463;28;20950;-66
2022/03/25 02:30:36;;;;;;;28.67;23.37;;;3.00;57.90;;;1.98;66.92;98902.16;5014947;28;20435;-66
2022/03/25 02:33:05;;;;;;;29.10;21.33;;;3.20;58.00;;;1.93;66.86;98880.41;5014891;28;20453;-66
2022/03/25 02:35:39;;;;;;;27.73;17.87;;;3.30;58.00;;;1.61;67.42;98833.53;5013317;28;20949;-67
2022/03/25 02:38:08;;;;;;;20.70;16.30;;;3.30;58.00;;;1.91;67.32;98895.72;5013401;28;20877;-67
2022/03/25 02:40:37;;;;;;;23.20;17.00;;;3.30;58.20;;;1.90;67.76;98901.16;5014569;28;20938;-66
2022/03/25 02:43:05;;;;;;;23.10;17.87;;;3.20;58.40;;;1.85;67.63;98904.25;5013380;28;20505;-68
2022/03/25 02:45:32;;;;;;;19.40;14.53;;;3.20;58.60;;;1.91;67.89;98909.03;5014563;28;20934;-68
2022/03/25 02:48:01;;;;;;;20.87;15.33;;;3.20;59.00;;;1.93;68.14;98901.75;5013127;28;20446;-67
2022/03/25 02:50:28;;;;;;;21.63;15.70;;;3.20;59.30;;;1.91;68.34;98902.84;5014629;28;20443;-65
2022/03/25 02:52:55;;;;;;;18.07;13.87;;;3.20;59.30;;;1.89;68.90;98900.31;5029731;28;20493;-66
2022/03/25 02:55:23;;;;;;;18.27;14.50;;;3.30;59.70;;;1.80;68.78;98891.31;5013620;28;20775;-66
2022/03/25 02:57:51;;;;;;;17.97;14.00;;;3.20;59.80;;;1.77;68.88;98901.44;5029588;28;20470;-67
2022/03/25 03:00:19;;;;;;;20.10;14.10;;;3.20;60.10;;;1.68;69.26;98879.94;5014491;28;20446;-66
2022/03/25 03:02:47;;;;;;;15.20;12.63;;;3.10;60.30;;;1.75;69.03;98898.06;5029833;28;20755;-65
2022/03/25 03:05:17;;;;;;;18.80;14.20;;;3.10;61.00;;;1.68;69.50;98893.28;5014837;28;20458;-68
2022/03/25 03:07:45;;;;;;;18.97;14.30;;;3.10;61.00;;;1.59;69.62;98888.75;5013277;28;20859;-67
2022/03/25 03:10:13;;;;;;;20.97;14.00;;;3.10;61.40;;;1.53;69.89;98906.16;5013856;28;20930;-68
2022/03/25 03:12:41;;;;;;;19.00;13.30;;;3.00;61.60;;;1.30;70.45;98905.50;5029980;28;20966;-65
2022/03/25 03:15:12;;;;;;;19.10;14.23;;;2.80;61.90;;;1.23;70.64;98909.66;5013598;28;20481;-67
2022/03/25 03:17:39;;;;;;;17.30;13.30;;;2.60;62.90;;;1.17;71.35;98905.72;5013340;28;20496;-64
2022/03/25 03:20:08;;;;;;;20.77;15.20;;;2.60;63.60;;;1.08;71.51;98909.19;5014772;28;20446;-67
2022/03/25 03:22:35;;;;;;;18.27;14.00;;;2.50;64.10;;;1.06;71.35;98906.66;5015161;28;20479;-67
2022/03/25 03:25:03;;;;;;;19.03;14.20;;;2.40;64.50;;;1.07;71.53;98904.84;5030417;28;20496;-66
2022/03/25 03:27:30;;;;;;;22.87;15.20;;;2.40;64.90;;;1.11;71.03;98912.41;5014348;28;20535;-65
2022/03/25 03:29:58;;;;;;;22.93;15.30;;;2.40;64.90;;;1.07;70.94;98908.34;5013900;28;20438;-65
2022/03/25 03:32:27;;;;;;;19.27;13.57;;;2.40;64.80;;;0.96;71.86;98916.41;5012811;28;20445;-66
2022/03/25 03:34:54;;;;;;;18.90;13.70;;;2.40;65.10;;;0.75;72.46;98909.28;5012326;28;20437;-65
2022/03/25 03:37:22;;;;;;;22.20;15.47;;;2.20;65.80;;;0.64;72.98;98912.88;5013526;28;20471;-65
2022/03/25 03:39:50;;;;;;;17.53;14.93;;;2.10;67.00;;;0.58;72.98;98924.00;5012210;28;20437;-65
2022/03/25 03:42:17;;;;;;;19.40;13.90;;;1.90;67.80;;;0.25;73.78;98862.91;5012732;28;20496;-66
2022/03/25 03:44:44;;;;;;;22.30;14.67;;;2.00;68.70;;;0.61;73.38;98906.94;5013571;28;20465;-66
2022/03/25 03:47:12;;;;;;;18.00;14.20;;;2.00;68.80;;;0.50;73.54;98908.69;5013823;28;20522;-67
2022/03/25 03:49:41;;;;;;;21.57;14.50;;;1.90;69.10;;;0.32;74.69;98916.41;5014019;28;20442;-65
2022/03/25 03:52:09;;;;;;;21.47;15.30;;;1.80;69.80;;;0.21;74.79;98917.28;5013698;28;20449;-65
2022/03/25 03:54:37;;;;;;;20.20;14.87;;;1.70;70.40;;;0.14;75.20;98919.59;5013873;28;20934;-66
2022/03/25 03:57:08;;;;;;;20.83;14.57;;;1.60;71.10;;;0.10;75.41;98922.66;5013536;28;20919;-66
2022/03/25 03:59:35;;;;;;;19.80;14.27;;;1.50;71.70;;;0.05;75.70;98914.19;5013730;28;20442;-66
2022/03/25 04:02:03;;;;;;;23.00;15.43;;;1.50;72.30;;;0.04;76.08;98917.84;5012975;28;20487;-66
2022/03/25 04:04:30;;;;;;;17.40;13.83;;;1.50;72.40;;;0.04;75.85;98917.84;5013274;28;20443;-66
2022/03/25 04:06:58;;;;;;;21.83;16.07;;;1.40;72.60;;;-0.02;75.54;98913.88;5012630;28;20822;-67
2022/03/25 04:09:25;;;;;;;22.47;15.70;;;1.40;72.90;;;0.03;75.93;98905.50;5013279;28;20541;-66
2022/03/25 04:11:53;;;;;;;27.37;18.87;;;1.40;73.10;;;0.06;75.78;98914.09;5013626;28;20454;-66
2022/03/25 04:14:20;;;;;;;23.70;16.90;;;1.50;72.90;;;0.01;75.63;98912.78;5013319;28;20450;-67
2022/03/25 04:16:48;;;;;;;23.60;17.93;;;1.50;73.10;;;0.00;75.66;98909.28;5013491;28;20450;-67
2022/03/25 04:19:15;;;;;;;21.87;16.67;;;1.40;73.20;;;0.01;75.35;98915.44;5012102;28;20582;-65
2022/03/25 04:21:42;;;;;;;22.57;16.67;;;1.40;73.40;;;0.23;74.35;98902.06;5011935;28;20441;-66
2022/03/25 04:24:10;;;;;;;24.67;16.30;;;1.50;72.80;;;0.24;74.04;98898.44;5014018;28;20444;-65
2022/03/25 04:26:37;;;;;;;27.97;18.90;;;1.60;71.90;;;0.12;75.03;98900.28;5013860;28;20984;-66
2022/03/25 04:29:04;;;;;;;25.37;18.70;;;1.60;72.10;;;-0.03;75.75;98905.06;5017205;28;20444;-66
2022/03/25 04:31:31;;;;;;;25.57;19.63;;;1.40;72.80;;;-0.06;75.48;98910.63;5015929;28;20533;-66
2022/03/25 04:33:58;;;;;;;35.10;22.27;;;1.40;73.50;;;0.21;74.44;98911.97;5016921;28;20529;-67
2022/03/25 04:36:25;;;;;;;26.17;19.60;;;1.50;73.30;;;0.14;75.03;98916.13;5016263;28;21003;-67
2022/03/25 04:38:53;;;;;;;46.30;30.30;;;1.50;72.50;;;-0.05;76.09;98914.97;5016715;28;20469;-67
2022/03/25 04:41:21;;;;;;;36.43;26.97;;;1.40;73.10;;;0.04;75.33;98916.03;5017239;28;20462;-66
2022/03/25 04:43:48;;;;;;;67.27;33.87;;;1.40;73.40;;;0.08;75.05;98916.63;5016681;28;20785;-66
2022/03/25 04:46:15;;;;;;;73.80;39.23;;;1.50;73.10;;;0.06;75.24;98916.75;5017178;28;20479;-66
2022/03/25 04:48:42;;;;;;;85.53;41.97;;;1.50;73.00;;;0.02;74.91;98925.09;5015904;28;20453;-67
2022/03/25 04:51:09;;;;;;;57.60;31.90;;;1.40;72.70;;;0.02;75.58;98920.63;5016823;28;20446;-66
2022/03/25 04:53:37;;;;;;;56.13;31.53;;;1.40;73.10;;;-0.01;75.62;98920.84;5017272;28;20959;-65
2022/03/25 04:56:05;;;;;;;93.70;44.03;;;1.40;73.30;;;-0.07;76.01;98919.56;5015478;28;20464;-67
2022/03/25 04:58:33;;;;;;;67.97;35.93;;;1.40;73.70;;;-0.06;75.45;98918.59;5016402;28;20552;-66
2022/03/25 05:01:00;;;;;;;44.80;27.87;;;1.40;73.80;;;0.00;75.47;98917.25;5016526;28;20476;-66
2022/03/25 05:03:28;;;;;;;52.57;30.80;;;1.40;73.80;;;0.16;75.06;98922.16;5015354;28;20588;-67
2022/03/25 05:05:55;;;;;;;42.40;26.27;;;1.50;73.40;;;0.25;74.87;98921.41;5016323;28;20443;-66
2022/03/25 05:08:22;;;;;;;43.73;26.27;;;1.60;73.50;;;0.20;74.86;98920.09;5017353;28;20544;-66
2022/03/25 05:10:49;;;;;;;42.80;25.93;;;1.60;73.60;;;0.25;75.23;98924.06;5016526;28;20532;-68
2022/03/25 05:13:16;;;;;;;40.37;23.90;;;1.70;73.60;;;0.37;75.01;98923.97;5014976;28;20781;-67
2022/03/25 05:15:44;;;;;;;38.77;23.60;;;1.70;73.30;;;0.38;75.04;98923.00;5016645;28;20481;-67
2022/03/25 05:18:11;;;;;;;25.10;18.80;;;1.80;73.40;;;0.47;74.59;98927.56;5016069;28;20469;-67
2022/03/25 05:20:38;;;;;;;27.10;18.20;;;1.80;73.10;;;0.56;74.83;98928.63;5031580;28;20830;-67
2022/03/25 05:23:05;;;;;;;27.73;18.90;;;1.90;73.10;;;0.58;74.48;98936.47;5031609;28;20509;-65
2022/03/25 05:25:32;;;;;;;28.23;18.90;;;2.00;72.90;;;0.57;74.80;98924.97;5016339;28;20507;-66
2022/03/25 05:28:00;;;;;;;23.37;16.80;;;2.00;72.90;;;0.55;74.69;98927.78;5016254;28;20448;-66
2022/03/25 05:30:29;;;;;;;21.10;16.03;;;2.00;72.60;;;0.64;74.59;98938.59;5015977;28;20542;-66
2022/03/25 05:32:58;;;;;;;22.33;15.73;;;2.00;73.00;;;0.55;74.63;98935.75;5031083;28;20941;-65
2022/03/25 05:35:27;;;;;;;23.60;16.50;;;2.00;72.60;;;0.59;74.81;98927.53;5014426;28;20450;-66
2022/03/25 05:37:55;;;;;;;30.53;18.00;;;2.10;72.90;;;0.47;74.88;98950.69;5015409;28;21035;-66
2022/03/25 05:40:24;;;;;;;23.30;16.23;;;2.00;72.60;;;0.35;74.95;98950.72;5016008;28;20443;-73
2022/03/25 05:42:51;;;;;;;21.47;16.47;;;1.90;73.00;;;0.35;76.13;98958.69;5015507;28;20439;-73
2022/03/25 05:45:20;;;;;;;25.57;17.70;;;1.80;73.50;;;0.44;75.60;98965.06;5015952;28;20447;-68
2022/03/25 05:47:49;;;;;;;28.13;18.40;;;1.90;73.70;;;0.59;75.32;98964.75;5015372;28;20534;-68
2022/03/25 05:50:19;;;;;;;24.73;17.93;;;2.00;73.30;;;0.73;73.93;98967.09;5015518;28;20447;-69
2022/03/25 05:52:46;;;;;;;28.43;16.20;;;2.10;72.50;;;0.86;73.32;98963.41;5014406;28;20767;-69
2022/03/25 05:55:14;;;;;;;27.40;17.50;;;2.30;71.80;;;0.80;74.02;98970.91;5014232;28;20850;-68
2022/03/25 05:57:41;;;;;;;29.40;18.27;;;2.30;72.00;;;0.98;72.37;98965.00;5015062;28;20438;-70
2022/03/25 06:00:09;;;;;;;25.93;17.93;;;2.40;71.00;;;0.99;72.35;98977.38;5030582;28;20489;-67
2022/03/25 06:02:37;;;;;;;25.77;19.20;;;2.40;70.50;;;1.00;72.91;98968.41;5015451;28;20795;-69
2022/03/25 06:05:05;;;;;;;26.70;18.37;;;2.40;70.70;;;1.08;72.55;98968.59;5015279;28;20485;-68
2022/03/25 06:07:37;;;;;;;28.70;19.20;;;2.50;70.50;;;1.16;71.75;98975.09;5016382;28;20451;-68
2022/03/25 06:10:07;;;;;;;26.20;19.00;;;2.50;70.00;;;1.14;71.54;98975.19;5014906;28;20791;-68
2022/03/25 06:12:34;;;;;;;28.80;20.83;;;2.60;69.70;;;1.27;70.91;98964.34;5015280;28;20439;-67
2022/03/25 06:15:03;;;;;;;32.50;21.27;;;2.70;69.80;;;1.39;71.16;98963.28;5015155;28;20442;-68
2022/03/25 06:17:30;;;;;;;31.17;21.80;;;2.80;69.70;;;1.45;70.66;98971.72;5015001;28;20501;-67
2022/03/25 06:19:57;;;;;;;34.17;23.23;;;2.90;68.70;;;1.52;70.02;98976.38;5015458;28;20775;-69
2022/03/25 06:22:24;;;;;;;36.10;21.57;;;3.00;68.30;;;1.59;69.99;98973.19;5015129;28;20801;-67
2022/03/25 06:24:54;;;;;;;30.03;23.20;;;3.00;68.10;;;1.74;71.05;98981.63;5015509;28;20451;-68
2022/03/25 06:27:21;;;;;;;39.00;24.67;;;3.10;68.60;;;1.98;69.64;98979.47;5015159;28;20525;-68
2022/03/25 06:29:48;;;;;;;32.00;24.10;;;3.30;68.30;;;1.97;69.03;98976.94;5029508;28;20455;-69
2022/03/25 06:32:15;;;;;;;35.07;24.70;;;3.40;67.30;;;2.04;68.60;98980.75;5030047;28;20529;-67
2022/03/25 06:34:42;;;;;;;34.30;25.37;;;3.40;66.60;;;2.08;68.49;98984.00;5013675;28;20453;-68
2022/03/25 06:37:09;;;;;;;35.43;25.50;;;3.50;66.50;;;2.20;68.13;98982.91;5029367;28;20481;-68
2022/03/25 06:39:36;;;;;;;35.30;24.63;;;3.60;66.10;;;2.22;68.36;98986.25;5012816;28;20551;-68
2022/03/25 06:42:06;;;;;;;33.60;25.10;;;3.60;65.80;;;2.33;67.66;98976.44;5014604;28;20919;-68
2022/03/25 06:44:33;;;;;;;35.63;25.60;;;3.80;65.80;;;2.48;67.78;98979.53;5013393;28;20450;-68
2022/03/25 06:47:00;;;;;;;39.23;27.60;;;3.90;65.60;;;2.79;66.29;98988.22;5014828;28;20564;-68
2022/03/25 06:49:28;;;;;;;37.73;26.47;;;4.10;65.40;;;2.77;66.28;98984.88;5014545;28;20546;-68
2022/03/25 06:51:55;;;;;;;41.37;27.57;;;4.20;64.60;;;2.89;66.19;98995.41;5014321;28;20458;-68
2022/03/25 06:54:23;;;;;;;44.07;29.50;;;4.20;64.30;;;2.92;65.72;98995.09;5029809;28;20543;-68
2022/03/25 06:56:51;;;;;;;39.93;28.37;;;4.40;63.80;;;3.20;65.89;98995.22;5013322;28;20441;-68
2022/03/25 06:59:21;;;;;;;43.60;30.00;;;4.50;64.50;;;3.41;64.77;98997.69;5015307;28;20554;-67
2022/03/25 07:01:48;;;;;;;43.73;29.53;;;4.70;63.10;;;3.49;64.17;98987.13;5017069;28;20482;-68
2022/03/25 07:04:16;;;;;;;45.27;31.20;;;4.80;62.80;;;3.50;64.04;98978.13;5017386;28;20435;-68
2022/03/25 07:06:49;;;;;;;47.70;31.37;;;4.90;62.50;;;3.73;63.75;98992.94;5016969;28;20479;-68
2022/03/25 07:09:17;;;;;;;53.43;32.00;;;5.10;62.00;;;3.88;62.65;98991.47;5014082;28;20475;-68
2022/03/25 07:11:44;;;;;;;51.25;34.30;;;5.30;61.30;;;4.16;62.73;98995.94;5014413;28;20459;-67
2022/03/25 07:14:11;;;;;;;55.40;40.07;;;5.40;61.10;;;4.32;61.79;98995.28;5012813;28;20508;-67
2022/03/25 07:16:42;;;;;;;54.00;36.97;;;5.60;60.80;;;4.38;61.21;98994.69;5011826;28;20447;-66
2022/03/25 07:19:09;;;;;;;54.37;36.83;;;5.70;59.70;;;4.32;61.32;98981.88;5013489;28;20927;-66
2022/03/25 07:21:37;;;;;;;52.27;37.07;;;5.70;59.30;;;4.51;60.92;98995.16;5029766;28;20447;-66
2022/03/25 07:24:04;;;;;;;52.20;32.67;;;5.80;59.20;;;4.74;60.14;99000.03;5012156;28;20822;-67
2022/03/25 07:26:31;;;;;;;38.43;30.80;;;6.00;59.10;;;4.90;59.67;98996.66;5013849;28;20514;-66
2022/03/25 07:28:58;;;;;;;39.97;31.07;;;6.10;58.60;;;5.02;59.85;99004.47;5028899;28;20439;-67
2022/03/25 07:31:28;;;;;;;40.50;30.70;;;6.30;58.20;;;5.15;59.14;99004.06;5013606;28;20440;-66
2022/03/25 07:33:56;;;;;;;37.53;30.67;;;6.40;57.60;;;5.41;57.70;99008.59;5012288;28;20439;-66
2022/03/25 07:36:24;;;;;;;43.93;31.00;;;6.60;57.20;;;5.55;56.93;98997.28;5013407;28;20435;-67
2022/03/25 07:38:51;;;;;;;41.23;30.90;;;6.80;56.50;;;5.70;57.49;99004.75;5012273;28;20554;-66
2022/03/25 07:41:18;;;;;;;46.40;30.77;;;6.90;56.40;;;5.82;56.37;99004.28;5013815;28;20784;-67
2022/03/25 07:43:46;;;;;;;38.73;30.77;;;7.10;55.60;;;5.87;55.91;98992.22;5013526;28;20432;-66
2022/03/25 07:46:13;;;;;;;38.90;30.00;;;7.20;55.50;;;6.14;55.69;99007.31;5012255;28;20526;-66
2022/03/25 07:48:41;;;;;;;40.60;30.57;;;7.40;54.90;;;6.22;55.02;99001.94;5012161;28;20447;-67
2022/03/25 07:51:10;;;;;;;39.50;31.20;;;7.50;54.10;;;6.39;54.34;99002.00;5012295;28;20976;-67
2022/03/25 07:53:37;;;;;;;45.93;31.43;;;7.60;54.00;;;6.43;55.07;99010.56;5013640;28;20423;-67
2022/03/25 07:56:05;;;;;;;35.23;27.93;;;7.70;54.00;;;6.50;54.08;99011.56;5013609;28;20464;-65
2022/03/25 07:58:32;;;;;;;37.60;28.60;;;7.70;53.40;;;6.38;54.87;99005.69;5013028;28;20540;-67
2022/03/25 08:00:59;;;;;;;39.23;28.37;;;7.70;53.50;;;6.37;54.35;99006.69;5014382;28;20494;-67
2022/03/25 08:03:26;;;;;;;34.37;27.10;;;7.70;53.40;;;6.63;53.82;99011.13;5020340;28;20470;-67
2022/03/25 08:05:55;;;;;;;36.27;28.37;;;7.80;53.50;;;6.77;54.16;99021.19;5020436;28;20484;-67
2022/03/25 08:08:23;;;;;;;38.00;29.27;;;8.00;53.30;;;6.76;54.01;99008.78;5035111;28;20538;-66
2022/03/25 08:10:55;;;;;;;39.85;31.33;;;8.10;53.30;;;7.20;53.67;99012.13;5019203;28;20956;-66
2022/03/25 08:13:23;;;;;;;35.43;29.27;;;8.30;53.40;;;7.30;53.22;99014.66;5020495;28;20196;-68
2022/03/25 08:15:51;;;;;;;37.95;28.88;;;8.50;53.20;;;7.41;52.09;99002.69;5018423;28;20925;-67
2022/03/25 08:18:18;;;;;;;34.97;26.50;;;8.60;52.30;;;7.57;51.88;98996.44;5019864;28;20239;-67
2022/03/25 08:20:48;;;;;;;35.90;27.30;;;8.80;52.00;;;7.92;51.29;99003.22;5019148;28;20636;-67
2022/03/25 08:27:48;;;;;;;34.87;26.43;;;9.00;51.70;;;7.96;49.98;98992.94;5019749;28;20526;-66
2022/03/25 08:29:03;;;;;;;34.30;27.20;;;9.30;50.60;;;8.27;49.88;99013.66;5018324;28;20462;-66
2022/03/25 08:31:34;;;;;;;30.60;27.30;;;9.40;50.60;;;8.35;49.66;99002.00;5019881;28;20435;-66
2022/03/25 08:34:02;;;;;;;37.90;29.57;;;9.50;50.20;;;8.41;49.37;98995.91;5019906;28;20898;-67
2022/03/25 08:36:29;;;;;;;41.63;30.40;;;9.60;49.90;;;8.50;49.29;99007.53;5018465;28;20523;-67
2022/03/25 08:38:56;;;;;;;42.23;29.40;;;9.70;49.90;;;8.57;48.65;98994.16;5018181;28;20518;-67
2022/03/25 08:41:24;;;;;;;35.67;27.50;;;9.80;49.70;;;8.69;49.07;99003.50;5035479;28;20467;-68
2022/03/25 08:43:52;;;;;;;44.93;28.40;;;9.80;49.90;;;9.01;48.63;99003.47;5019511;28;20478;-68
2022/03/25 08:46:21;;;;;;;38.07;30.53;;;10.10;49.00;;;9.14;47.57;99000.13;5033955;28;21049;-68
2022/03/25 08:48:48;;;;;;;36.60;27.90;;;10.20;48.40;;;9.12;48.45;98956.34;5020377;28;20446;-67
2022/03/25 08:51:15;;;;;;;39.30;28.23;;;10.40;48.40;;;9.37;47.35;98993.88;5018271;28;20453;-75
2022/03/25 08:53:43;;;;;;;39.20;29.30;;;10.50;47.90;;;9.45;48.15;98993.78;5035113;28;20467;-70
2022/03/25 08:56:11;;;;;;;43.07;27.57;;;10.60;48.10;;;9.71;46.85;98992.50;5018614;28;20473;-74
2022/03/25 08:58:39;;;;;;;37.33;28.47;;;10.80;47.80;;;9.81;46.99;98987.66;5018245;28;20448;-67
2022/03/25 09:01:06;;;;;;;36.50;27.57;;;10.90;47.60;;;9.99;46.31;98999.94;5017976;28;20530;-69
2022/03/25 09:03:33;;;;;;;35.30;27.13;;;11.10;47.60;;;10.18;45.72;98985.84;5019302;28;20452;-67
2022/03/25 09:06:00;;;;;;;31.27;25.87;;;11.20;47.20;;;10.21;45.35;98971.97;5018974;28;20451;-67
2022/03/25 09:08:27;;;;;;;37.70;27.57;;;11.40;47.30;;;10.43;45.98;98990.97;5019408;28;20447;-68
2022/03/25 09:10:54;;;;;;;30.23;25.53;;;11.50;47.00;;;10.49;45.87;98992.88;5019367;28;20431;-67
2022/03/25 09:13:21;;;;;;;34.57;27.27;;;11.60;47.10;;;10.69;45.47;98999.53;5015192;28;20761;-68
2022/03/25 09:15:50;;;;;;;34.53;25.83;;;11.70;47.10;;;10.75;46.17;99002.31;5016687;28;20619;-67
2022/03/25 09:18:17;;;;;;;35.13;26.03;;;11.80;46.90;;;10.55;44.76;98949.94;5016083;28;20441;-67
2022/03/25 09:20:44;;;;;;;39.30;26.23;;;11.90;46.70;;;11.04;44.72;98988.84;5015708;28;20568;-68
2022/03/25 09:23:12;;;;;;;38.60;27.43;;;12.10;46.70;;;11.00;44.79;98999.22;5016445;28;20448;-73
2022/03/25 09:25:38;;;;;;;36.30;27.43;;;12.10;46.50;;;11.18;44.37;98985.22;5016125;28;20456;-70
2022/03/25 09:28:06;;;;;;;37.23;26.63;;;12.20;46.50;;;11.26;43.88;98988.81;5014655;28;20526;-71
2022/03/25 09:30:33;;;;;;;33.40;26.67;;;12.40;46.10;;;11.41;44.19;98996.81;5016262;28;20445;-72
2022/03/25 09:33:01;;;;;;;30.87;26.67;;;12.50;46.30;;;11.62;42.97;98991.38;5016379;28;20839;-72
2022/03/25 09:35:29;;;;;;;35.23;26.97;;;12.60;45.50;;;11.83;42.90;98988.75;5016205;28;20898;-72
2022/03/25 09:37:56;;;;;;;33.10;26.67;;;12.90;45.40;;;12.01;41.84;98990.94;5016336;28;20445;-78
2022/03/25 09:40:27;;;;;;;34.60;27.70;;;13.00;44.90;;;11.77;41.82;98930.84;5030980;28;20521;-70
2022/03/25 09:42:57;;;;;;;30.93;26.00;;;13.10;44.80;;;12.32;40.22;98979.66;5014381;28;20441;-69
2022/03/25 09:45:25;;;;;;;35.87;27.67;;;13.30;44.00;;;12.53;40.23;98985.13;5030767;28;20460;-68
2022/03/25 09:47:54;;;;;;;34.13;28.43;;;13.50;43.70;;;12.63;39.60;98979.31;5014376;28;20482;-69
2022/03/25 09:50:28;;;;;;;31.57;26.13;;;13.60;43.40;;;12.81;38.86;98978.69;5015230;28;20735;-68
2022/03/25 09:52:56;;;;;;;37.58;30.48;;;13.80;43.10;;;12.96;38.97;98983.94;5012656;28;20790;-68
2022/03/25 09:55:23;;;;;;;32.20;27.57;;;13.90;42.90;;;13.03;38.71;98973.94;5023006;28;20264;-68
2022/03/25 09:57:51;;;;;;;31.57;27.07;;;14.00;42.80;;;13.23;38.60;98979.34;5034614;28;20528;-67
2022/03/25 10:00:20;;;;;;;34.07;26.53;;;14.10;42.90;;;13.36;36.64;98975.81;5033857;28;20980;-68
2022/03/25 10:02:47;;;;;;;31.13;25.07;;;14.40;42.00;;;13.36;34.84;98975.81;5035229;28;20456;-68
2022/03/25 10:05:17;;;;;;;29.20;25.10;;;14.40;39.90;;;13.76;34.47;98977.66;5050823;28;20441;-68
2022/03/25 10:07:48;;;;;;;29.30;24.10;;;14.60;39.80;;;13.88;33.77;98965.09;5035391;28;20446;-74
2022/03/25 10:10:17;;;;;;;31.00;24.33;;;14.80;39.10;;;13.98;33.31;98970.06;5035281;28;20935;-74
2022/03/25 10:12:46;;;;;;;31.27;25.50;;;14.90;38.80;;;13.99;32.25;98971.75;5035020;28;20454;-73
2022/03/25 10:15:17;;;;;;;32.40;25.77;;;15.00;37.80;;;14.08;31.93;98964.19;5035032;28;20437;-75
2022/03/25 10:17:56;;;;;;;28.63;24.10;;;15.10;37.50;;;14.14;31.96;98963.31;5035093;28;20823;-75
2022/03/25 10:20:26;;;;;;;31.83;25.50;;;15.10;37.60;;;14.11;32.42;98968.34;5025534;28;21020;-75
2022/03/25 10:23:10;;;;;;;28.00;24.30;;;15.10;37.60;;;14.38;31.11;98968.22;5015327;28;20469;-74